To NAV CANADA Home Page Login to a new session Search on AWWS site Feedback and Comments Disclaimer Vers la page française équivalente Tips FAQ What's new on the site To the Forecasts and Observations / NOTAM section To "File a Flight Plan" website Publications and other links Update of the User's profile FIC Telephone Numbers My Weather Data Folder Route Weather Data Regional Weather Data Local Weather Data To the Forecasts and Observations / NOTAM section
Request Generated 12/04/2016 at 22:21:02 UTC . Weather information available at that time is displayed.

METAR/TAF

GREENWOOD/NS    

METAR CYZX 042200Z 33008KT 15SM OVC030 M00/M04 A3006 RMK SC8 WNDY HILL 36001KT SLP181=
METAR CYZX 042100Z 33008KT 15SM BKN030 M00/M04 A3004 RMK SC7 WNDY HILL 34012G18KT SLP173=
METAR CYZX 042000Z 32008G16KT 15SM BKN035 M00/M03 A3002 RMK SC7 WNDY HILL 34008G16KT SLP167=

TAF CYZX 041730Z 0418/0518 34010KT P6SM SCT020 BKN030 TEMPO 0418/0506
4SM -SHSNGS BKN020 OVC030
FM050600 32005KT P6SM BKN030 TEMPO 0506/0510 BKN020
FM051000 30005KT P6SM SCT020 TEMPO 0510/0512 BKN020
RMK NXT FCST BY 050000Z=
Your time UTC time
Weather data provided by Environment Canada and NAV CANADA